createdAt,value
2019-02-17T00:00:37.542Z,16.50
2019-02-17T00:03:05.606Z,18.00
2019-02-17T00:05:33.666Z,19.17
2019-02-17T00:08:01.726Z,18.73
2019-02-17T00:10:29.779Z,18.23
2019-02-17T00:12:57.842Z,18.60
2019-02-17T00:15:25.902Z,17.77
2019-02-17T00:17:53.974Z,17.50
2019-02-17T00:20:22.035Z,15.73
2019-02-17T00:22:50.095Z,16.57
2019-02-17T00:25:20.412Z,16.07
2019-02-17T00:27:47.982Z,15.17
2019-02-17T00:30:16.039Z,16.10
2019-02-17T00:32:44.106Z,15.10
2019-02-17T00:35:12.166Z,14.87
2019-02-17T00:37:59.566Z,13.33
2019-02-17T00:40:27.623Z,14.40
2019-02-17T00:42:55.688Z,14.00
2019-02-17T00:45:23.843Z,12.10
2019-02-17T00:47:51.898Z,14.97
2019-02-17T00:50:19.980Z,13.87
2019-02-17T00:52:48.032Z,14.37
2019-02-17T00:55:16.091Z,15.53
2019-02-17T00:57:44.156Z,14.30
2019-02-17T01:00:12.750Z,14.87
2019-02-17T01:02:41.981Z,15.80
2019-02-17T01:05:10.202Z,15.13
2019-02-17T01:07:38.266Z,15.60
2019-02-17T01:10:06.983Z,15.37
2019-02-17T01:12:35.028Z,14.93
2019-02-17T01:15:03.173Z,15.03
2019-02-17T01:17:31.238Z,14.60
2019-02-17T01:19:59.290Z,13.30
2019-02-17T01:22:27.344Z,14.50
2019-02-17T01:24:55.398Z,13.53
2019-02-17T01:27:23.516Z,14.13
2019-02-17T01:29:51.570Z,14.20
2019-02-17T01:32:19.642Z,13.83
2019-02-17T01:34:47.698Z,13.83
2019-02-17T01:37:15.750Z,13.50
2019-02-17T01:39:45.439Z,13.50
2019-02-17T01:42:13.514Z,13.93
2019-02-17T01:44:41.566Z,13.53
2019-02-17T01:47:09.615Z,12.87
2019-02-17T01:49:37.710Z,13.60
2019-02-17T01:52:05.785Z,12.33
2019-02-17T01:54:33.826Z,12.03
2019-02-17T01:57:01.896Z,13.57
2019-02-17T01:59:30.854Z,13.30
2019-02-17T02:01:59.080Z,12.67
2019-02-17T02:04:27.202Z,12.40
2019-02-17T02:06:55.250Z,12.87
2019-02-17T02:09:24.227Z,12.60
2019-02-17T02:11:52.276Z,12.83
2019-02-17T02:14:20.339Z,13.50
2019-02-17T02:16:48.398Z,13.67
2019-02-17T02:19:16.454Z,13.33
2019-02-17T02:21:44.526Z,13.80
2019-02-17T02:24:12.578Z,13.60
2019-02-17T02:26:40.644Z,12.73
2019-02-17T02:29:08.792Z,13.90
2019-02-17T02:31:36.853Z,12.60
2019-02-17T02:34:06.490Z,13.07
2019-02-17T02:36:34.655Z,13.37
2019-02-17T02:39:03.699Z,13.00
2019-02-17T02:41:34.842Z,15.20
2019-02-17T02:44:01.626Z,14.37
2019-02-17T02:46:29.707Z,14.47
2019-02-17T02:48:57.760Z,13.10
2019-02-17T02:51:25.820Z,15.13
2019-02-17T02:53:53.905Z,13.67
2019-02-17T02:56:21.985Z,13.67
2019-02-17T02:58:50.038Z,14.20
2019-02-17T03:01:18.126Z,14.07
2019-02-17T03:03:46.295Z,13.53
2019-02-17T03:06:15.962Z,12.10
2019-02-17T03:08:44.033Z,13.07
2019-02-17T03:11:12.082Z,12.57
2019-02-17T03:13:40.142Z,11.50
2019-02-17T03:16:08.242Z,13.43
2019-02-17T03:18:36.315Z,13.03
2019-02-17T03:21:04.362Z,13.00
2019-02-17T03:23:32.431Z,12.33
2019-02-17T03:26:00.486Z,12.07
2019-02-17T03:28:28.572Z,11.23
2019-02-17T03:30:56.604Z,11.17
2019-02-17T03:33:24.655Z,12.33
2019-02-17T03:35:52.746Z,11.67
2019-02-17T03:38:20.815Z,11.47
2019-02-17T03:40:48.911Z,11.70
2019-02-17T03:43:16.974Z,11.33
2019-02-17T03:45:45.050Z,12.13
2019-02-17T03:48:13.118Z,11.60
2019-02-17T03:50:41.182Z,11.70
2019-02-17T03:53:09.242Z,11.03
2019-02-17T03:55:37.303Z,10.57
2019-02-17T03:58:05.379Z,11.90
2019-02-17T04:00:33.458Z,11.60
2019-02-17T04:03:01.506Z,10.53
2019-02-17T04:05:29.561Z,11.67
2019-02-17T04:07:57.634Z,13.00
2019-02-17T04:10:25.675Z,12.83
2019-02-17T04:12:53.746Z,12.00
2019-02-17T04:15:21.804Z,11.00
2019-02-17T04:17:49.862Z,11.60
2019-02-17T04:20:17.922Z,12.30
2019-02-17T04:22:45.970Z,13.60
2019-02-17T04:25:14.101Z,12.47
2019-02-17T04:27:42.153Z,12.37
2019-02-17T04:30:10.474Z,13.33
2019-02-17T04:32:38.538Z,12.60
2019-02-17T04:35:06.670Z,12.73
2019-02-17T04:37:34.776Z,13.43
2019-02-17T04:40:03.028Z,13.27
2019-02-17T04:42:31.075Z,12.07
2019-02-17T04:44:59.135Z,13.00
2019-02-17T04:47:27.194Z,12.33
2019-02-17T04:49:55.252Z,12.40
2019-02-17T04:52:23.300Z,11.47
2019-02-17T04:54:51.395Z,12.87
2019-02-17T04:57:20.304Z,12.77
2019-02-17T04:59:48.394Z,12.23
2019-02-17T05:02:16.498Z,12.40
2019-02-17T05:04:44.559Z,11.47
2019-02-17T05:07:12.665Z,11.90
2019-02-17T05:09:40.768Z,11.07
2019-02-17T05:12:08.842Z,10.50
2019-02-17T05:14:36.891Z,10.60
2019-02-17T05:17:04.952Z,9.93
2019-02-17T05:19:33.002Z,10.93
2019-02-17T05:22:01.053Z,10.23
2019-02-17T05:24:29.126Z,11.17
2019-02-17T05:26:57.175Z,11.33
2019-02-17T05:29:25.235Z,10.80
2019-02-17T05:31:53.292Z,10.27
2019-02-17T05:34:21.340Z,11.10
2019-02-17T05:36:49.402Z,12.03
2019-02-17T05:39:17.474Z,11.70
2019-02-17T05:41:45.530Z,11.97
2019-02-17T05:44:13.595Z,10.10
2019-02-17T05:46:41.639Z,10.80
2019-02-17T05:49:09.705Z,11.30
2019-02-17T05:51:37.751Z,11.17
2019-02-17T05:54:05.844Z,11.63
2019-02-17T05:56:33.938Z,10.70
2019-02-17T05:59:01.997Z,11.30
2019-02-17T06:01:30.053Z,11.80
2019-02-17T06:03:58.119Z,11.07
2019-02-17T06:06:26.171Z,10.70
2019-02-17T06:08:54.285Z,9.73
2019-02-17T06:11:22.334Z,9.60
2019-02-17T06:13:50.384Z,9.47
2019-02-17T06:16:18.450Z,9.80
2019-02-17T06:18:46.490Z,10.07
2019-02-17T06:21:14.542Z,10.43
2019-02-17T06:23:42.686Z,10.23
2019-02-17T06:26:10.754Z,10.63
2019-02-17T06:28:38.810Z,9.77
2019-02-17T06:31:13.971Z,11.30
2019-02-17T06:33:36.670Z,11.90
2019-02-17T06:36:04.799Z,11.97
2019-02-17T06:38:32.842Z,10.20
2019-02-17T06:41:00.891Z,10.90
2019-02-17T06:43:28.950Z,11.13
2019-02-17T06:45:57.002Z,10.93
2019-02-17T06:48:25.050Z,11.27
2019-02-17T06:50:53.154Z,11.87
2019-02-17T06:53:21.212Z,11.70
2019-02-17T06:55:50.906Z,10.10
2019-02-17T06:58:18.955Z,11.43
2019-02-17T07:00:47.014Z,12.13
2019-02-17T07:03:15.108Z,11.43
2019-02-17T07:05:56.904Z,10.97
2019-02-17T07:08:26.007Z,11.50
2019-02-17T07:10:54.162Z,11.20
2019-02-17T07:13:22.212Z,10.60
2019-02-17T07:15:50.286Z,10.40
2019-02-17T07:18:18.347Z,11.07
2019-02-17T07:20:46.394Z,10.53
2019-02-17T07:23:15.311Z,11.40
2019-02-17T07:25:43.596Z,10.57
2019-02-17T07:28:11.674Z,11.60
2019-02-17T07:30:39.726Z,10.40
2019-02-17T07:33:07.802Z,10.73
2019-02-17T07:35:35.854Z,9.83
2019-02-17T07:38:03.910Z,10.03
2019-02-17T07:40:31.979Z,11.53
2019-02-17T07:43:00.112Z,10.10
2019-02-17T07:45:28.191Z,10.83
2019-02-17T07:47:56.260Z,10.73
2019-02-17T07:50:24.299Z,10.23
2019-02-17T07:52:52.349Z,10.33
2019-02-17T07:55:20.406Z,9.90
2019-02-17T07:57:48.458Z,12.17
2019-02-17T08:00:16.506Z,9.80
2019-02-17T08:02:44.611Z,10.93
2019-02-17T08:05:12.672Z,11.33
2019-02-17T08:07:40.733Z,10.07
2019-02-17T08:10:09.163Z,11.17
2019-02-17T08:12:37.290Z,11.10
2019-02-17T08:15:07.332Z,11.27
2019-02-17T08:17:35.463Z,11.20
2019-02-17T08:20:03.994Z,11.13
2019-02-17T08:22:32.042Z,12.57
2019-02-17T08:25:00.154Z,11.77
2019-02-17T08:27:28.339Z,12.37
2019-02-17T08:29:56.390Z,12.70
2019-02-17T08:32:24.441Z,11.93
2019-02-17T08:34:53.227Z,12.73
2019-02-17T08:37:21.414Z,11.67
2019-02-17T08:39:49.475Z,12.50
2019-02-17T08:42:17.530Z,13.30
2019-02-17T08:44:45.583Z,13.43
2019-02-17T08:47:13.662Z,12.50
2019-02-17T08:49:41.718Z,12.23
2019-02-17T08:52:09.766Z,11.93
2019-02-17T08:54:37.860Z,13.20
2019-02-17T08:57:05.902Z,12.93
2019-02-17T08:59:33.950Z,13.10
2019-02-17T09:02:06.048Z,13.20
2019-02-17T09:04:31.782Z,12.03
2019-02-17T09:06:59.979Z,13.57
2019-02-17T09:09:28.031Z,12.87
2019-02-17T09:11:56.114Z,13.17
2019-02-17T09:14:24.174Z,11.97
2019-02-17T09:16:52.231Z,12.57
2019-02-17T09:19:20.293Z,13.90
2019-02-17T09:21:48.356Z,14.00
2019-02-17T09:24:16.417Z,13.13
2019-02-17T09:26:44.474Z,13.83
2019-02-17T09:29:12.530Z,13.63
2019-02-17T09:31:40.691Z,13.67
2019-02-17T09:34:08.757Z,14.40
2019-02-17T09:36:36.812Z,14.30
2019-02-17T09:39:06.398Z,13.57
2019-02-17T09:41:34.518Z,15.07
2019-02-17T09:44:02.576Z,13.60
2019-02-17T09:46:30.622Z,14.77
2019-02-17T09:48:58.687Z,15.33
2019-02-17T09:51:26.734Z,14.27
2019-02-17T09:53:54.796Z,13.83
2019-02-17T09:56:22.834Z,13.73
2019-02-17T09:58:50.901Z,13.87
2019-02-17T10:01:18.970Z,14.57
2019-02-17T10:03:47.032Z,14.23
2019-02-17T10:06:15.075Z,13.73
2019-02-17T10:08:43.138Z,14.47
2019-02-17T10:11:11.248Z,14.40
2019-02-17T10:13:39.318Z,13.70
2019-02-17T10:16:07.347Z,14.73
2019-02-17T10:18:35.427Z,15.60
2019-02-17T10:21:03.465Z,14.80
2019-02-17T10:23:31.521Z,16.20
2019-02-17T10:25:59.582Z,15.30
2019-02-17T10:28:27.717Z,16.10
2019-02-17T10:30:55.766Z,15.73
2019-02-17T10:33:23.814Z,14.83
2019-02-17T10:35:51.882Z,16.00
2019-02-17T10:38:20.606Z,16.20
2019-02-17T10:40:48.827Z,16.70
2019-02-17T10:43:16.880Z,15.63
2019-02-17T10:45:44.969Z,15.93
2019-02-17T10:48:13.046Z,15.73
2019-02-17T10:50:41.090Z,16.90
2019-02-17T10:53:09.150Z,16.13
2019-02-17T10:55:37.200Z,17.17
2019-02-17T10:58:05.379Z,16.63
2019-02-17T11:00:33.723Z,16.83
2019-02-17T11:03:05.841Z,17.10
2019-02-17T11:05:33.974Z,17.10
2019-02-17T11:08:02.018Z,16.70
2019-02-17T11:10:30.138Z,16.60
2019-02-17T11:12:58.209Z,16.63
2019-02-17T11:15:26.258Z,17.13
2019-02-17T11:17:54.310Z,18.47
2019-02-17T11:20:22.380Z,16.97
2019-02-17T11:22:50.444Z,17.60
2019-02-17T11:25:18.510Z,16.33
2019-02-17T11:27:46.566Z,16.33
2019-02-17T11:30:15.932Z,16.43
2019-02-17T11:32:43.991Z,17.93
2019-02-17T11:35:12.039Z,18.33
2019-02-17T11:37:40.112Z,16.97
2019-02-17T11:40:09.227Z,17.67
2019-02-17T11:42:37.275Z,17.87
2019-02-17T11:45:06.875Z,17.47
2019-02-17T11:47:34.923Z,18.23
2019-02-17T11:50:03.591Z,17.30
2019-02-17T11:52:31.643Z,19.00
2019-02-17T11:54:59.695Z,18.30
2019-02-17T11:57:27.755Z,17.97
2019-02-17T11:59:55.822Z,19.10
2019-02-17T12:02:25.247Z,18.73
2019-02-17T12:04:53.489Z,18.73
2019-02-17T12:07:21.570Z,20.20
2019-02-17T12:09:49.630Z,19.43
2019-02-17T12:12:17.686Z,18.43
2019-02-17T12:14:45.739Z,19.07
2019-02-17T12:17:13.782Z,19.10
2019-02-17T12:19:41.848Z,18.23
2019-02-17T12:22:14.666Z,19.30
2019-02-17T12:24:44.317Z,18.67
2019-02-17T12:27:20.058Z,18.40
2019-02-17T12:29:49.764Z,17.50
2019-02-17T12:32:19.398Z,17.37
2019-02-17T12:34:47.460Z,18.23
2019-02-17T12:37:15.518Z,17.27
2019-02-17T12:39:43.841Z,18.63
2019-02-17T12:42:11.887Z,17.93
2019-02-17T12:44:39.964Z,18.20
2019-02-17T12:47:08.024Z,16.87
2019-02-17T12:49:36.072Z,17.60
2019-02-17T12:52:04.144Z,18.20
2019-02-17T12:54:32.194Z,17.17
2019-02-17T12:57:00.331Z,17.43
2019-02-17T12:59:28.394Z,17.27
2019-02-17T13:01:56.450Z,18.67
2019-02-17T13:04:24.506Z,17.27
2019-02-17T13:06:52.560Z,16.33
2019-02-17T13:09:20.622Z,17.37
2019-02-17T13:11:48.773Z,17.60
2019-02-17T13:14:16.818Z,17.80
2019-02-17T13:16:44.874Z,16.13
2019-02-17T13:19:12.926Z,19.30
2019-02-17T13:21:41.014Z,16.80
2019-02-17T13:24:09.074Z,16.33
2019-02-17T13:26:37.118Z,16.20
2019-02-17T13:29:05.166Z,17.50
2019-02-17T13:31:33.459Z,16.50
2019-02-17T13:34:01.514Z,16.20
2019-02-17T13:36:29.567Z,16.73
2019-02-17T13:38:57.614Z,17.23
2019-02-17T13:41:25.675Z,16.50
2019-02-17T13:43:53.742Z,15.97
2019-02-17T13:46:21.799Z,16.07
2019-02-17T13:48:49.846Z,15.67
2019-02-17T13:51:17.902Z,15.63
2019-02-17T13:53:45.954Z,21.57
2019-02-17T13:56:14.040Z,16.83
2019-02-17T13:58:42.083Z,15.60
2019-02-17T14:01:10.138Z,16.00
2019-02-17T14:03:38.194Z,20.63
2019-02-17T14:06:07.066Z,18.27
2019-02-17T14:08:35.139Z,18.03
2019-02-17T14:11:03.182Z,15.50
2019-02-17T14:13:31.250Z,15.97
2019-02-17T14:15:59.299Z,15.63
2019-02-17T14:18:27.359Z,15.73
2019-02-17T14:20:55.411Z,14.10
2019-02-17T14:23:23.461Z,15.13
2019-02-17T14:25:51.519Z,15.47
2019-02-17T14:28:19.591Z,15.13
2019-02-17T14:30:47.629Z,14.97
2019-02-17T14:33:15.714Z,25.27
2019-02-17T14:35:43.738Z,14.97
2019-02-17T14:38:11.795Z,15.03
2019-02-17T14:40:39.862Z,16.27
2019-02-17T14:43:07.910Z,14.53
2019-02-17T14:45:35.961Z,14.83
2019-02-17T14:48:04.018Z,15.13
2019-02-17T14:50:32.062Z,15.47
2019-02-17T14:53:00.114Z,15.53
2019-02-17T14:55:28.178Z,14.87
2019-02-17T14:58:05.004Z,14.93
2019-02-17T15:00:26.016Z,14.30
2019-02-17T15:02:54.069Z,14.20
2019-02-17T15:05:22.131Z,15.53
2019-02-17T15:07:50.171Z,15.27
2019-02-17T15:10:18.232Z,15.83
2019-02-17T15:12:46.282Z,14.80
2019-02-17T15:15:15.294Z,13.73
2019-02-17T15:17:43.360Z,14.80
2019-02-17T15:20:12.371Z,15.17
2019-02-17T15:22:40.418Z,14.70
2019-02-17T15:25:09.662Z,14.87
2019-02-17T15:27:37.702Z,14.63
2019-02-17T15:30:07.299Z,14.77
2019-02-17T15:32:35.448Z,14.30
2019-02-17T15:35:03.994Z,14.53
2019-02-17T15:37:32.035Z,14.00
2019-02-17T15:40:00.096Z,14.77
2019-02-17T15:42:28.239Z,14.80
2019-02-17T15:44:56.314Z,14.50
2019-02-17T15:47:24.339Z,14.47
2019-02-17T15:49:52.540Z,13.70
2019-02-17T15:52:20.582Z,13.90
2019-02-17T15:54:48.731Z,13.97
2019-02-17T15:57:16.818Z,14.10
2019-02-17T15:59:44.858Z,13.47
2019-02-17T16:02:12.909Z,13.13
2019-02-17T16:04:40.963Z,12.83
2019-02-17T16:07:09.026Z,13.37
2019-02-17T16:09:37.071Z,13.23
2019-02-17T16:12:05.196Z,14.23
2019-02-17T16:14:33.234Z,13.13
2019-02-17T16:17:01.282Z,13.73
2019-02-17T16:19:29.546Z,13.97
2019-02-17T16:21:57.593Z,13.27
2019-02-17T16:24:25.641Z,13.47
2019-02-17T16:26:53.711Z,23.63
2019-02-17T16:29:21.766Z,15.13
2019-02-17T16:31:49.824Z,13.23
2019-02-17T16:34:17.878Z,14.47
2019-02-17T16:36:45.940Z,13.30
2019-02-17T16:39:14.027Z,12.37
2019-02-17T16:41:42.082Z,14.27
2019-02-17T16:44:10.143Z,12.77
2019-02-17T16:46:38.195Z,13.47
2019-02-17T16:49:06.253Z,13.60
2019-02-17T16:51:34.358Z,14.93
2019-02-17T16:54:02.446Z,16.00
2019-02-17T16:56:30.498Z,16.20
2019-02-17T16:58:58.562Z,14.40
2019-02-17T17:01:26.614Z,14.50
2019-02-17T17:03:54.660Z,15.03
2019-02-17T17:06:22.746Z,14.63
2019-02-17T17:08:50.812Z,14.00
2019-02-17T17:11:18.864Z,13.47
2019-02-17T17:13:46.910Z,14.27
2019-02-17T17:16:14.971Z,14.53
2019-02-17T17:18:44.413Z,14.50
2019-02-17T17:21:12.665Z,14.10
2019-02-17T17:23:40.730Z,14.37
2019-02-17T17:26:08.774Z,12.30
2019-02-17T17:28:36.826Z,12.10
2019-02-17T17:31:04.932Z,12.10
2019-02-17T17:33:32.978Z,11.87
2019-02-17T17:36:01.033Z,12.30
2019-02-17T17:38:29.096Z,13.27
2019-02-17T17:40:57.138Z,16.43
2019-02-17T17:43:25.226Z,20.07
2019-02-17T17:45:53.278Z,22.80
2019-02-17T17:48:21.343Z,23.30
2019-02-17T17:50:49.388Z,27.63
2019-02-17T17:53:17.450Z,27.63
2019-02-17T17:55:45.531Z,18.20
2019-02-17T17:58:13.587Z,14.77
2019-02-17T18:00:43.536Z,12.40
2019-02-17T18:03:11.410Z,12.57
2019-02-17T18:05:39.454Z,12.60
2019-02-17T18:08:07.507Z,12.83
2019-02-17T18:10:35.579Z,14.57
2019-02-17T18:13:03.628Z,12.97
2019-02-17T18:15:31.698Z,14.47
2019-02-17T18:17:59.767Z,16.10
2019-02-17T18:20:27.870Z,14.33
2019-02-17T18:22:55.954Z,13.07
2019-02-17T18:25:24.010Z,16.10
2019-02-17T18:27:52.064Z,17.33
2019-02-17T18:30:20.382Z,16.27
2019-02-17T18:32:48.503Z,14.00
2019-02-17T18:35:20.161Z,15.73
2019-02-17T18:37:46.322Z,14.73
2019-02-17T18:40:18.006Z,14.20
2019-02-17T18:42:46.062Z,12.17
2019-02-17T18:45:14.782Z,10.87
2019-02-17T18:47:42.857Z,10.53
2019-02-17T18:50:12.875Z,10.73
2019-02-17T18:52:41.010Z,10.70
2019-02-17T18:55:13.258Z,12.10
2019-02-17T18:57:49.630Z,10.53
2019-02-17T19:00:12.421Z,10.60
2019-02-17T19:02:40.476Z,10.93
2019-02-17T19:05:09.509Z,13.07
2019-02-17T19:07:37.559Z,16.27
2019-02-17T19:10:09.987Z,14.30
2019-02-17T19:12:38.171Z,16.33
2019-02-17T19:15:07.990Z,18.00
2019-02-17T19:17:36.074Z,16.23
2019-02-17T19:20:05.661Z,13.80
2019-02-17T19:22:33.706Z,17.23
2019-02-17T19:25:01.766Z,24.60
2019-02-17T19:27:29.815Z,37.93
2019-02-17T19:29:57.875Z,66.37
2019-02-17T19:32:25.942Z,44.67
2019-02-17T19:34:53.995Z,22.90
2019-02-17T19:37:22.050Z,21.13
2019-02-17T19:39:50.102Z,17.93
2019-02-17T19:42:18.154Z,16.97
2019-02-17T19:44:46.206Z,17.07
2019-02-17T19:47:14.334Z,18.00
2019-02-17T19:49:42.395Z,19.17
2019-02-17T19:52:10.478Z,19.23
2019-02-17T19:54:38.542Z,14.90
2019-02-17T19:57:06.594Z,17.07
2019-02-17T19:59:34.721Z,17.33
2019-02-17T20:02:02.824Z,18.80
2019-02-17T20:04:32.506Z,17.60
2019-02-17T20:07:00.579Z,14.57
2019-02-17T20:09:28.624Z,13.20
2019-02-17T20:11:56.670Z,11.90
2019-02-17T20:14:24.743Z,13.10
2019-02-17T20:16:53.024Z,11.57
2019-02-17T20:19:21.034Z,12.67
2019-02-17T20:21:49.430Z,12.70
2019-02-17T20:24:17.518Z,12.10
2019-02-17T20:26:45.566Z,11.40
2019-02-17T20:29:13.622Z,12.77
2019-02-17T20:31:41.716Z,12.20
2019-02-17T20:34:09.770Z,10.70
2019-02-17T20:36:37.830Z,12.63
2019-02-17T20:39:05.890Z,11.77
2019-02-17T20:41:33.946Z,12.63
2019-02-17T20:44:01.998Z,11.03
2019-02-17T20:46:30.082Z,12.30
2019-02-17T20:48:58.138Z,13.47
2019-02-17T20:51:26.880Z,12.70
2019-02-17T20:53:55.114Z,10.87
2019-02-17T20:56:23.172Z,10.53
2019-02-17T20:58:51.218Z,9.93
2019-02-17T21:01:19.290Z,9.53
2019-02-17T21:03:47.350Z,10.33
2019-02-17T21:06:15.415Z,10.43
2019-02-17T21:08:43.468Z,10.10
2019-02-17T21:11:11.582Z,9.10
2019-02-17T21:13:39.813Z,10.07
2019-02-17T21:16:08.002Z,8.17
2019-02-17T21:18:36.070Z,8.47
2019-02-17T21:21:04.152Z,9.80
2019-02-17T21:23:32.271Z,11.70
2019-02-17T21:26:00.328Z,12.03
2019-02-17T21:28:28.396Z,8.73
2019-02-17T21:30:56.451Z,8.40
2019-02-17T21:33:24.502Z,8.60
2019-02-17T21:35:52.550Z,8.50
2019-02-17T21:38:20.625Z,8.97
2019-02-17T21:40:48.695Z,11.50
2019-02-17T21:43:16.750Z,10.53
2019-02-17T21:45:44.818Z,10.10
2019-02-17T21:48:12.892Z,9.50
2019-02-17T21:50:40.967Z,10.07
2019-02-17T21:53:20.078Z,12.93
2019-02-17T21:55:39.971Z,10.13
2019-02-17T21:58:08.102Z,11.30
2019-02-17T22:00:36.326Z,10.90
2019-02-17T22:03:04.423Z,10.93
2019-02-17T22:05:32.482Z,11.30
2019-02-17T22:08:00.579Z,11.17
2019-02-17T22:10:28.629Z,12.60
2019-02-17T22:12:56.683Z,13.20
2019-02-17T22:15:24.754Z,12.20
2019-02-17T22:17:52.808Z,13.53
2019-02-17T22:20:20.881Z,12.77
2019-02-17T22:22:48.945Z,13.73
2019-02-17T22:25:17.025Z,14.57
2019-02-17T22:27:45.070Z,13.13
2019-02-17T22:30:14.654Z,13.37
2019-02-17T22:32:42.718Z,15.00
2019-02-17T22:35:10.772Z,13.27
2019-02-17T22:37:38.836Z,13.00
2019-02-17T22:40:08.569Z,12.13
2019-02-17T22:42:36.613Z,14.53
2019-02-17T22:45:06.052Z,14.60
2019-02-17T22:47:34.103Z,17.47
2019-02-17T22:50:02.182Z,15.57
2019-02-17T22:52:30.243Z,16.73
2019-02-17T22:54:58.295Z,18.60
2019-02-17T22:57:26.370Z,17.83
2019-02-17T22:59:54.422Z,19.73
2019-02-17T23:02:23.535Z,20.27
2019-02-17T23:04:51.614Z,21.17
2019-02-17T23:07:19.666Z,20.47
2019-02-17T23:09:47.722Z,17.93
2019-02-17T23:12:15.771Z,15.67
2019-02-17T23:14:43.855Z,15.90
2019-02-17T23:17:11.960Z,15.33
2019-02-17T23:19:40.037Z,12.80
2019-02-17T23:22:08.266Z,12.67
2019-02-17T23:24:36.922Z,13.13
2019-02-17T23:27:04.994Z,12.73
2019-02-17T23:29:33.065Z,13.10
2019-02-17T23:32:01.114Z,13.33
2019-02-17T23:34:29.174Z,12.30
2019-02-17T23:37:03.651Z,12.93
2019-02-17T23:39:27.030Z,14.50
2019-02-17T23:41:55.086Z,11.43
2019-02-17T23:44:23.189Z,9.67
2019-02-17T23:46:51.314Z,9.90
2019-02-17T23:49:19.370Z,12.37
2019-02-17T23:51:48.592Z,13.03
2019-02-17T23:54:16.734Z,11.70
2019-02-17T23:56:44.813Z,11.27
2019-02-17T23:59:12.866Z,11.17
